createdAt,value
2018-07-09T00:00:28.949Z,4.97
2018-07-09T00:02:58.927Z,5.78
2018-07-09T00:05:28.767Z,5.65
2018-07-09T00:07:57.883Z,5.60
2018-07-09T00:10:39.116Z,5.95
2018-07-09T00:13:08.742Z,6.10
2018-07-09T00:15:39.909Z,5.92
2018-07-09T00:18:11.636Z,5.62
2018-07-09T00:20:42.552Z,6.22
2018-07-09T00:23:13.591Z,6.65
2018-07-09T00:25:44.361Z,7.17
2018-07-09T00:28:16.591Z,6.47
2018-07-09T00:30:46.737Z,6.05
2018-07-09T00:33:16.701Z,5.72
2018-07-09T00:35:47.845Z,5.87
2018-07-09T00:38:19.589Z,6.75
2018-07-09T00:40:49.947Z,6.05
2018-07-09T00:43:20.637Z,5.45
2018-07-09T00:45:52.068Z,6.33
2018-07-09T00:48:24.378Z,6.33
2018-07-09T00:50:55.421Z,6.37
2018-07-09T00:53:25.652Z,6.37
2018-07-09T00:55:57.117Z,5.67
2018-07-09T00:58:26.938Z,6.60
2018-07-09T01:00:57.188Z,6.70
2018-07-09T01:03:27.369Z,6.90
2018-07-09T01:05:56.537Z,6.33
2018-07-09T01:08:28.587Z,6.50
2018-07-09T01:11:09.191Z,6.28
2018-07-09T01:13:49.117Z,6.58
2018-07-09T01:16:19.153Z,6.85
2018-07-09T01:18:48.873Z,5.75
2018-07-09T01:21:18.852Z,6.25
2018-07-09T01:23:48.442Z,7.67
2018-07-09T01:26:17.828Z,6.37
2018-07-09T01:28:48.991Z,6.53
2018-07-09T01:31:19.277Z,6.45
2018-07-09T01:33:49.112Z,6.55
2018-07-09T01:36:19.208Z,6.33
2018-07-09T01:38:48.543Z,6.78
2018-07-09T01:41:18.684Z,6.60
2018-07-09T01:43:50.118Z,6.78
2018-07-09T01:46:22.407Z,6.87
2018-07-09T01:48:52.787Z,6.70
2018-07-09T01:51:22.517Z,6.95
2018-07-09T01:53:53.017Z,7.03
2018-07-09T01:56:22.296Z,7.20
2018-07-09T01:58:53.537Z,6.67
2018-07-09T02:01:24.789Z,6.50
2018-07-09T02:03:55.083Z,7.03
2018-07-09T02:06:27.888Z,7.25
2018-07-09T02:08:58.552Z,6.83
2018-07-09T02:11:28.887Z,6.55
2018-07-09T02:13:58.363Z,6.47
2018-07-09T02:16:30.117Z,7.00
2018-07-09T02:18:59.417Z,6.95
2018-07-09T02:21:28.857Z,6.92
2018-07-09T02:23:58.624Z,6.67
2018-07-09T02:26:29.866Z,7.33
2018-07-09T02:29:01.277Z,7.10
2018-07-09T02:31:31.773Z,6.90
2018-07-09T02:34:03.648Z,7.53
2018-07-09T02:36:34.235Z,6.97
2018-07-09T02:39:06.997Z,7.47
2018-07-09T02:41:37.410Z,7.25
2018-07-09T02:44:07.682Z,7.40
2018-07-09T02:46:39.659Z,7.60
2018-07-09T02:49:10.443Z,8.15
2018-07-09T02:51:41.194Z,7.10
2018-07-09T02:54:11.754Z,6.95
2018-07-09T02:56:42.968Z,7.53
2018-07-09T02:59:12.928Z,7.40
2018-07-09T03:01:43.262Z,7.92
2018-07-09T03:04:14.620Z,8.03
2018-07-09T03:06:45.855Z,7.53
2018-07-09T03:09:16.894Z,7.62
2018-07-09T03:11:46.712Z,7.80
2018-07-09T03:14:17.224Z,8.25
2018-07-09T03:16:47.718Z,7.87
2018-07-09T03:19:17.070Z,9.35
2018-07-09T03:21:46.785Z,8.73
2018-07-09T03:24:16.543Z,8.68
2018-07-09T03:26:47.045Z,8.70
2018-07-09T03:29:16.799Z,8.13
2018-07-09T03:31:46.503Z,8.18
2018-07-09T03:34:16.461Z,8.40
2018-07-09T03:36:47.788Z,7.83
2018-07-09T03:39:18.781Z,8.48
2018-07-09T03:41:49.752Z,7.97
2018-07-09T03:44:20.853Z,7.80
2018-07-09T03:46:50.856Z,7.87
2018-07-09T03:49:20.224Z,8.10
2018-07-09T03:51:50.796Z,7.37
2018-07-09T03:54:19.919Z,8.43
2018-07-09T03:56:51.200Z,8.18
2018-07-09T03:59:20.948Z,8.08
2018-07-09T04:01:50.665Z,8.55
2018-07-09T04:04:21.264Z,8.45
2018-07-09T04:06:50.789Z,7.60
2018-07-09T04:09:20.928Z,7.62
2018-07-09T04:11:52.949Z,8.25
2018-07-09T04:14:22.333Z,7.70
2018-07-09T04:16:53.600Z,8.33
2018-07-09T04:19:24.601Z,8.78
2018-07-09T04:21:54.902Z,8.93
2018-07-09T04:24:24.732Z,7.92
2018-07-09T04:26:54.946Z,7.75
2018-07-09T04:29:25.464Z,8.38
2018-07-09T04:31:56.073Z,7.47
2018-07-09T04:34:26.609Z,7.95
2018-07-09T04:36:56.290Z,8.58
2018-07-09T04:39:27.367Z,7.85
2018-07-09T04:41:57.457Z,8.00
2018-07-09T04:44:26.780Z,7.00
2018-07-09T04:46:58.520Z,6.45
2018-07-09T04:49:28.631Z,6.50
2018-07-09T04:51:59.355Z,6.90
2018-07-09T04:54:28.704Z,6.83
2018-07-09T04:56:58.147Z,6.53
2018-07-09T04:59:29.802Z,6.58
2018-07-09T05:02:00.757Z,6.40
2018-07-09T05:04:32.123Z,6.35
2018-07-09T05:07:03.754Z,6.30
2018-07-09T05:09:34.072Z,6.22
2018-07-09T05:12:04.324Z,6.67
2018-07-09T05:14:34.868Z,6.72
2018-07-09T05:17:04.183Z,6.72
2018-07-09T05:19:34.751Z,6.72
2018-07-09T05:22:08.404Z,6.10
2018-07-09T05:24:39.363Z,6.60
2018-07-09T05:27:08.391Z,5.85
2018-07-09T05:29:40.337Z,5.92
2018-07-09T05:32:11.838Z,6.08
2018-07-09T05:34:42.316Z,5.62
2018-07-09T05:37:12.688Z,5.22
2018-07-09T05:39:44.692Z,16.25
2018-07-09T05:42:14.426Z,5.45
2018-07-09T05:44:46.145Z,5.87
2018-07-09T05:47:16.852Z,5.53
2018-07-09T05:49:46.547Z,5.92
2018-07-09T05:52:16.952Z,5.37
2018-07-09T05:54:46.936Z,5.10
2018-07-09T05:57:16.592Z,5.25
2018-07-09T05:59:48.295Z,4.75
2018-07-09T06:02:18.552Z,4.80
2018-07-09T06:04:49.407Z,5.92
2018-07-09T06:07:18.535Z,4.80
2018-07-09T06:09:48.800Z,4.80
2018-07-09T06:12:18.841Z,4.92
2018-07-09T06:14:49.412Z,5.37
2018-07-09T06:17:18.688Z,5.22
2018-07-09T06:19:49.474Z,4.65
2018-07-09T06:22:19.421Z,4.72
2018-07-09T06:24:49.813Z,5.12
2018-07-09T06:27:20.078Z,4.30
2018-07-09T06:29:51.707Z,4.22
2018-07-09T06:32:22.400Z,4.67
2018-07-09T06:34:54.122Z,4.67
2018-07-09T06:37:24.792Z,4.10
2018-07-09T06:39:54.211Z,4.92
2018-07-09T06:42:25.351Z,4.25
2018-07-09T06:44:54.484Z,4.30
2018-07-09T06:47:25.781Z,4.75
2018-07-09T06:49:56.913Z,4.55
2018-07-09T06:52:26.793Z,4.65
2018-07-09T06:54:57.727Z,4.75
2018-07-09T06:57:29.018Z,4.78
2018-07-09T06:59:59.990Z,4.40
2018-07-09T07:02:30.502Z,4.35
2018-07-09T07:05:01.116Z,4.03
2018-07-09T07:07:31.162Z,4.62
2018-07-09T07:10:01.193Z,4.55
2018-07-09T07:12:30.870Z,5.12
2018-07-09T07:15:01.026Z,4.10
2018-07-09T07:17:30.225Z,3.80
2018-07-09T07:20:00.536Z,7.15
2018-07-09T07:22:30.714Z,4.30
2018-07-09T07:25:01.767Z,4.12
2018-07-09T07:27:33.770Z,3.98
2018-07-09T07:30:04.540Z,4.08
2018-07-09T07:32:35.648Z,4.90
2018-07-09T07:35:06.228Z,3.70
2018-07-09T07:37:37.356Z,4.33
2018-07-09T07:40:06.666Z,3.65
2018-07-09T07:42:36.575Z,3.70
2018-07-09T07:45:07.109Z,3.77
2018-07-09T07:47:36.274Z,4.15
2018-07-09T07:50:06.681Z,4.00
2018-07-09T07:52:38.191Z,4.40
2018-07-09T07:55:09.218Z,4.03
2018-07-09T07:57:41.590Z,4.15
2018-07-09T08:00:13.807Z,4.92
2018-07-09T08:02:46.554Z,3.98
2018-07-09T08:05:17.166Z,4.20
2018-07-09T08:07:46.987Z,3.52
2018-07-09T08:10:16.445Z,4.15
2018-07-09T08:13:13.466Z,4.10
2018-07-09T08:15:18.210Z,3.80
2018-07-09T08:17:48.916Z,3.45
2018-07-09T08:20:19.130Z,3.22
2018-07-09T08:22:49.400Z,3.60
2018-07-09T08:25:35.414Z,3.70
2018-07-09T08:28:18.060Z,3.50
2018-07-09T08:30:49.721Z,3.67
2018-07-09T08:33:20.741Z,3.33
2018-07-09T08:35:51.084Z,3.25
2018-07-09T08:38:21.433Z,3.10
2018-07-09T08:40:51.162Z,3.37
2018-07-09T08:43:21.248Z,3.25
2018-07-09T08:45:50.424Z,3.47
2018-07-09T08:48:20.588Z,2.50
2018-07-09T08:50:52.292Z,3.52
2018-07-09T08:53:21.970Z,2.95
2018-07-09T08:55:52.607Z,2.72
2018-07-09T08:58:21.724Z,3.47
2018-07-09T09:00:53.583Z,2.83
2018-07-09T09:03:23.543Z,3.22
2018-07-09T09:05:53.841Z,2.92
2018-07-09T09:08:23.330Z,3.42
2018-07-09T09:10:53.767Z,3.37
2018-07-09T09:13:24.210Z,3.00
2018-07-09T09:15:55.638Z,2.83
2018-07-09T09:18:24.766Z,3.33
2018-07-09T09:20:55.158Z,2.92
2018-07-09T09:23:24.209Z,11.60
2018-07-09T09:25:55.460Z,2.62
2018-07-09T09:28:26.042Z,2.62
2018-07-09T09:30:57.976Z,3.17
2018-07-09T09:33:29.181Z,3.30
2018-07-09T09:35:59.623Z,2.72
2018-07-09T09:38:31.488Z,4.60
2018-07-09T09:41:01.251Z,3.65
2018-07-09T09:43:30.974Z,2.92
2018-07-09T09:46:01.872Z,2.65
2018-07-09T09:48:33.398Z,2.80
2018-07-09T09:51:02.717Z,2.50
2018-07-09T09:53:33.198Z,2.50
2018-07-09T09:56:04.660Z,2.62
2018-07-09T09:58:34.273Z,2.50
2018-07-09T10:01:05.090Z,2.75
2018-07-09T10:03:34.810Z,3.35
2018-07-09T10:06:06.798Z,2.60
2018-07-09T10:08:39.124Z,3.00
2018-07-09T10:11:10.067Z,2.83
2018-07-09T10:13:42.798Z,3.33
2018-07-09T10:16:14.173Z,2.83
2018-07-09T10:18:44.801Z,2.87
2018-07-09T10:21:16.520Z,3.30
2018-07-09T10:23:47.653Z,3.58
2018-07-09T10:26:18.702Z,2.62
2018-07-09T10:28:49.970Z,2.87
2018-07-09T10:31:21.007Z,2.72
2018-07-09T10:33:51.877Z,2.40
2018-07-09T10:36:24.132Z,2.92
2018-07-09T10:38:57.043Z,3.10
2018-07-09T10:41:26.349Z,3.12
2018-07-09T10:43:57.546Z,2.47
2018-07-09T10:46:28.426Z,2.85
2018-07-09T10:49:00.318Z,2.80
2018-07-09T10:51:31.055Z,2.60
2018-07-09T10:54:00.655Z,3.05
2018-07-09T10:56:30.484Z,2.85
2018-07-09T10:59:01.170Z,2.50
2018-07-09T11:01:30.851Z,2.60
2018-07-09T11:04:01.970Z,3.62
2018-07-09T11:06:32.686Z,3.25
2018-07-09T11:09:05.985Z,3.25
2018-07-09T11:11:36.682Z,2.83
2018-07-09T11:14:07.094Z,3.08
2018-07-09T11:16:37.079Z,2.65
2018-07-09T11:19:06.588Z,2.70
2018-07-09T11:21:37.070Z,2.90
2018-07-09T11:24:07.802Z,2.77
2018-07-09T11:26:38.691Z,2.92
2018-07-09T11:29:08.143Z,3.00
2018-07-09T11:31:40.038Z,2.90
2018-07-09T11:34:11.910Z,3.20
2018-07-09T11:36:43.708Z,2.85
2018-07-09T11:39:14.603Z,2.70
2018-07-09T11:41:44.260Z,2.83
2018-07-09T11:44:13.798Z,2.90
2018-07-09T11:46:44.612Z,2.65
2018-07-09T11:49:14.191Z,2.55
2018-07-09T11:51:44.263Z,3.50
2018-07-09T11:54:14.532Z,2.70
2018-07-09T11:56:45.179Z,2.58
2018-07-09T11:59:15.323Z,2.80
2018-07-09T12:01:44.704Z,3.00
2018-07-09T12:04:16.452Z,2.65
2018-07-09T12:06:48.829Z,2.75
2018-07-09T12:09:19.180Z,3.08
2018-07-09T12:11:49.411Z,3.72
2018-07-09T12:14:19.323Z,3.00
2018-07-09T12:16:50.792Z,2.80
2018-07-09T12:19:22.364Z,2.70
2018-07-09T12:21:54.445Z,2.80
2018-07-09T12:24:26.068Z,2.72
2018-07-09T12:26:57.004Z,2.72
2018-07-09T12:29:26.763Z,3.00
2018-07-09T12:31:57.806Z,2.75
2018-07-09T12:34:28.855Z,3.65
2018-07-09T12:36:59.678Z,2.83
2018-07-09T12:39:31.322Z,3.12
2018-07-09T12:42:01.068Z,2.60
2018-07-09T12:44:31.645Z,2.95
2018-07-09T12:47:02.214Z,2.47
2018-07-09T12:49:33.851Z,2.60
2018-07-09T12:52:04.857Z,3.12
2018-07-09T12:54:36.602Z,3.00
2018-07-09T12:57:07.333Z,2.50
2018-07-09T12:59:38.041Z,3.60
2018-07-09T13:02:09.118Z,2.80
2018-07-09T13:04:40.285Z,2.83
2018-07-09T13:07:11.492Z,3.12
2018-07-09T13:09:41.246Z,2.90
2018-07-09T13:12:12.180Z,3.22
2018-07-09T13:14:43.646Z,3.10
2018-07-09T13:17:14.549Z,4.20
2018-07-09T13:19:45.444Z,3.08
2018-07-09T13:22:15.315Z,3.40
2018-07-09T13:24:46.488Z,3.00
2018-07-09T13:27:16.870Z,3.02
2018-07-09T13:29:48.288Z,3.05
2018-07-09T13:32:19.969Z,3.22
2018-07-09T13:34:51.642Z,2.47
2018-07-09T13:37:21.101Z,2.30
2018-07-09T13:39:50.348Z,2.62
2018-07-09T13:42:20.569Z,2.70
2018-07-09T13:44:52.524Z,4.45
2018-07-09T13:47:23.574Z,3.05
2018-07-09T13:49:53.891Z,2.37
2018-07-09T13:52:25.971Z,2.60
2018-07-09T13:54:58.047Z,2.40
2018-07-09T13:57:29.409Z,2.35
2018-07-09T14:00:00.819Z,2.83
2018-07-09T14:02:31.785Z,2.85
2018-07-09T14:05:03.825Z,2.80
2018-07-09T14:07:33.824Z,2.83
2018-07-09T14:10:03.171Z,2.62
2018-07-09T14:12:33.239Z,2.55
2018-07-09T14:15:03.000Z,2.92
2018-07-09T14:17:33.569Z,3.02
2018-07-09T14:20:33.018Z,3.00
2018-07-09T14:23:04.293Z,3.58
2018-07-09T14:25:35.435Z,3.08
2018-07-09T14:28:05.961Z,2.90
2018-07-09T14:30:38.528Z,2.52
2018-07-09T14:33:10.599Z,2.30
2018-07-09T14:35:41.891Z,3.52
2018-07-09T14:38:12.604Z,3.17
2018-07-09T14:40:43.611Z,3.00
2018-07-09T14:43:14.385Z,2.70
2018-07-09T14:45:45.805Z,2.75
2018-07-09T14:48:16.372Z,2.70
2018-07-09T14:50:47.158Z,2.90
2018-07-09T14:53:17.422Z,2.62
2018-07-09T14:55:47.399Z,3.02
2018-07-09T14:58:16.927Z,2.62
2018-07-09T15:00:50.385Z,2.92
2018-07-09T15:03:22.061Z,5.20
2018-07-09T15:05:52.697Z,3.17
2018-07-09T15:08:23.729Z,2.58
2018-07-09T15:10:54.401Z,2.60
2018-07-09T15:13:25.459Z,3.47
2018-07-09T15:15:55.310Z,2.85
2018-07-09T15:18:26.107Z,2.95
2018-07-09T15:20:57.182Z,2.45
2018-07-09T15:23:27.276Z,2.95
2018-07-09T15:25:56.429Z,2.80
2018-07-09T15:28:26.930Z,2.37
2018-07-09T15:30:57.377Z,2.72
2018-07-09T15:33:27.689Z,2.87
2018-07-09T15:35:58.647Z,2.90
2018-07-09T15:38:29.558Z,3.77
2018-07-09T15:40:59.480Z,3.37
2018-07-09T15:43:34.488Z,2.95
2018-07-09T15:46:06.131Z,2.67
2018-07-09T15:48:37.627Z,4.03
2018-07-09T15:51:07.217Z,2.45
2018-07-09T15:53:37.227Z,2.87
2018-07-09T15:56:07.792Z,2.90
2018-07-09T15:58:38.079Z,2.98
2018-07-09T16:01:09.116Z,3.22
2018-07-09T16:03:39.660Z,3.30
2018-07-09T16:06:10.572Z,2.90
2018-07-09T16:08:40.915Z,3.37
2018-07-09T16:11:10.165Z,3.00
2018-07-09T16:13:42.835Z,3.35
2018-07-09T16:16:13.796Z,2.83
2018-07-09T16:18:44.478Z,3.55
2018-07-09T16:21:15.845Z,3.17
2018-07-09T16:23:46.555Z,3.17
2018-07-09T16:26:19.374Z,3.42
2018-07-09T16:28:49.114Z,3.17
2018-07-09T16:31:18.873Z,3.42
2018-07-09T16:33:49.515Z,3.02
2018-07-09T16:36:19.341Z,3.47
2018-07-09T16:38:49.515Z,2.95
2018-07-09T16:41:19.918Z,3.20
2018-07-09T16:43:52.071Z,3.17
2018-07-09T16:46:22.715Z,3.72
2018-07-09T16:48:53.058Z,2.83
2018-07-09T16:51:23.147Z,2.95
2018-07-09T16:53:52.889Z,3.35
2018-07-09T16:56:22.949Z,3.05
2018-07-09T16:58:53.516Z,3.15
2018-07-09T17:01:23.308Z,3.20
2018-07-09T17:03:54.130Z,2.55
2018-07-09T17:06:26.232Z,3.42
2018-07-09T17:08:56.636Z,2.95
2018-07-09T17:11:28.004Z,2.90
2018-07-09T17:13:58.796Z,2.90
2018-07-09T17:16:28.757Z,3.62
2018-07-09T17:18:58.950Z,3.30
2018-07-09T17:21:29.360Z,3.17
2018-07-09T17:23:59.748Z,3.20
2018-07-09T17:26:29.428Z,3.15
2018-07-09T17:28:59.722Z,3.50
2018-07-09T17:31:31.194Z,3.33
2018-07-09T17:34:00.911Z,6.28
2018-07-09T17:36:33.272Z,4.87
2018-07-09T17:39:02.513Z,3.20
2018-07-09T17:41:34.556Z,3.50
2018-07-09T17:44:05.841Z,3.45
2018-07-09T17:46:36.527Z,3.02
2018-07-09T17:49:08.192Z,3.20
2018-07-09T17:51:38.043Z,3.02
2018-07-09T17:54:08.000Z,3.87
2018-07-09T17:56:39.427Z,3.25
2018-07-09T17:59:08.875Z,3.00
2018-07-09T18:01:40.328Z,3.25
2018-07-09T18:04:11.205Z,3.80
2018-07-09T18:06:40.435Z,3.17
2018-07-09T18:09:11.691Z,3.15
2018-07-09T18:11:41.114Z,2.92
2018-07-09T18:14:10.935Z,3.20
2018-07-09T18:16:42.054Z,3.02
2018-07-09T18:19:12.070Z,3.98
2018-07-09T18:21:43.107Z,3.92
2018-07-09T18:24:13.477Z,3.90
2018-07-09T18:26:44.551Z,3.98
2018-07-09T18:29:15.199Z,3.30
2018-07-09T18:31:45.414Z,3.47
2018-07-09T18:34:15.722Z,4.20
2018-07-09T18:36:44.904Z,3.95
2018-07-09T18:39:15.973Z,3.67
2018-07-09T18:41:46.567Z,3.27
2018-07-09T18:44:17.402Z,3.40
2018-07-09T18:46:46.624Z,3.55
2018-07-09T18:49:17.640Z,3.58
2018-07-09T18:51:47.572Z,3.55
2018-07-09T18:54:17.089Z,3.90
2018-07-09T18:56:47.314Z,5.72
2018-07-09T18:59:18.024Z,4.08
2018-07-09T19:01:48.796Z,3.60
2018-07-09T19:04:18.633Z,4.47
2018-07-09T19:06:55.432Z,4.22
2018-07-09T19:09:26.800Z,3.50
2018-07-09T19:11:57.433Z,3.27
2018-07-09T19:14:29.190Z,3.42
2018-07-09T19:17:03.959Z,3.50
2018-07-09T19:19:44.403Z,3.55
2018-07-09T19:22:14.594Z,3.00
2018-07-09T19:24:42.926Z,3.10
2018-07-09T19:27:11.740Z,3.45
2018-07-09T19:29:39.859Z,3.27
2018-07-09T19:32:08.750Z,3.02
2018-07-09T19:34:37.004Z,2.90
2018-07-09T19:37:06.394Z,3.05
2018-07-09T19:39:34.724Z,2.80
2018-07-09T19:42:03.510Z,3.33
2018-07-09T19:44:31.983Z,2.90
2018-07-09T19:47:01.033Z,2.77
2018-07-09T19:49:29.412Z,3.22
2018-07-09T19:51:58.824Z,3.33
2018-07-09T19:54:27.499Z,3.50
2018-07-09T19:56:55.965Z,4.03
2018-07-09T19:59:24.186Z,3.47
2018-07-09T20:01:52.365Z,3.70
2018-07-09T20:04:21.168Z,3.58
2018-07-09T20:06:49.537Z,4.10
2018-07-09T20:09:23.303Z,3.98
2018-07-09T20:11:52.704Z,3.55
2018-07-09T20:14:25.618Z,3.75
2018-07-09T20:16:59.186Z,3.87
2018-07-09T20:19:28.009Z,3.80
2018-07-09T20:21:56.906Z,3.85
2018-07-09T20:24:25.352Z,4.10
2018-07-09T20:26:53.757Z,3.35
2018-07-09T20:29:22.047Z,3.95
2018-07-09T20:31:50.185Z,3.70
2018-07-09T20:34:18.322Z,3.52
2018-07-09T20:36:47.108Z,3.80
2018-07-09T20:39:15.992Z,3.27
2018-07-09T20:41:44.231Z,3.60
2018-07-09T20:44:12.186Z,3.52
2018-07-09T20:46:40.267Z,3.25
2018-07-09T20:49:09.167Z,3.77
2018-07-09T20:51:38.312Z,3.22
2018-07-09T20:54:07.480Z,3.62
2018-07-09T20:56:35.791Z,3.58
2018-07-09T20:59:04.385Z,3.95
2018-07-09T21:01:32.476Z,3.95
2018-07-09T21:04:06.114Z,4.05
2018-07-09T21:06:34.919Z,3.67
2018-07-09T21:09:03.173Z,3.92
2018-07-09T21:11:32.602Z,3.90
2018-07-09T21:14:00.634Z,3.83
2018-07-09T21:16:29.416Z,3.80
2018-07-09T21:18:58.208Z,3.70
2018-07-09T21:21:29.383Z,3.47
2018-07-09T21:24:00.156Z,3.95
2018-07-09T21:26:28.238Z,3.95
2018-07-09T21:28:56.466Z,3.42
2018-07-09T21:31:24.738Z,3.62
2018-07-09T21:33:53.031Z,3.60
2018-07-09T21:36:21.525Z,3.80
2018-07-09T21:38:50.380Z,3.77
2018-07-09T21:41:18.402Z,3.72
2018-07-09T21:43:46.584Z,3.47
2018-07-09T21:46:14.804Z,3.30
2018-07-09T21:48:43.397Z,3.10
2018-07-09T21:51:11.613Z,3.27
2018-07-09T21:53:40.242Z,3.45
2018-07-09T21:56:08.363Z,3.55
2018-07-09T21:58:36.544Z,3.22
2018-07-09T22:01:05.705Z,3.10
2018-07-09T22:03:34.386Z,3.00
2018-07-09T22:06:03.046Z,3.08
2018-07-09T22:08:31.288Z,3.35
2018-07-09T22:10:59.758Z,2.70
2018-07-09T22:13:27.937Z,2.62
2018-07-09T22:15:56.258Z,3.02
2018-07-09T22:18:24.598Z,2.77
2018-07-09T22:20:54.163Z,2.80
2018-07-09T22:23:22.677Z,2.33
2018-07-09T22:25:50.943Z,2.27
2018-07-09T22:28:18.908Z,2.60
2018-07-09T22:30:51.039Z,2.60
2018-07-09T22:33:22.341Z,2.72
2018-07-09T22:35:52.527Z,2.35
2018-07-09T22:38:24.101Z,2.58
2018-07-09T22:40:55.355Z,2.45
2018-07-09T22:43:30.607Z,2.40
2018-07-09T22:46:00.947Z,2.27
2018-07-09T22:48:31.712Z,2.60
2018-07-09T22:51:01.424Z,2.65
2018-07-09T22:53:30.564Z,2.35
2018-07-09T22:56:13.937Z,2.55
2018-07-09T22:58:45.756Z,2.50
2018-07-09T23:01:15.098Z,2.40
2018-07-09T23:03:44.769Z,2.37
2018-07-09T23:06:15.434Z,2.65
2018-07-09T23:08:45.188Z,2.50
2018-07-09T23:11:19.903Z,2.47
2018-07-09T23:17:13.915Z,2.33
2018-07-09T23:22:27.373Z,2.55
2018-07-09T23:24:56.537Z,2.77
2018-07-09T23:27:24.528Z,2.10
2018-07-09T23:29:52.698Z,2.22
2018-07-09T23:32:21.427Z,2.35
2018-07-09T23:34:50.343Z,2.50
2018-07-09T23:37:18.453Z,2.05
2018-07-09T23:39:46.555Z,2.25
2018-07-09T23:42:15.359Z,2.42
2018-07-09T23:44:43.861Z,2.58
2018-07-09T23:47:11.988Z,2.10
2018-07-09T23:49:40.239Z,2.70
2018-07-09T23:52:08.715Z,2.52
2018-07-09T23:54:36.874Z,2.45
2018-07-09T23:58:20.873Z,3.10
